createdAt,value
2023-12-03T00:00:23.466Z,64.40
2023-12-03T00:02:25.655Z,64.10
2023-12-03T00:04:27.539Z,64.20
2023-12-03T00:06:29.540Z,63.90
2023-12-03T00:08:44.486Z,64.50
2023-12-03T00:10:51.693Z,64.50
2023-12-03T00:12:53.590Z,64.20
2023-12-03T00:14:55.428Z,64.10
2023-12-03T00:16:57.181Z,64.30
2023-12-03T00:18:59.034Z,64.40
2023-12-03T00:21:01.638Z,64.60
2023-12-03T00:23:04.289Z,65.00
2023-12-03T00:25:06.379Z,65.10
2023-12-03T00:27:08.328Z,65.30
2023-12-03T00:29:11.347Z,65.40
2023-12-03T00:31:13.041Z,64.80
2023-12-03T00:33:14.810Z,65.20
2023-12-03T00:35:16.530Z,65.30
2023-12-03T00:37:18.361Z,65.00
2023-12-03T00:39:20.147Z,65.00
2023-12-03T00:41:22.035Z,64.80
2023-12-03T00:43:23.733Z,64.90
2023-12-03T00:45:25.454Z,64.90
2023-12-03T00:47:27.648Z,65.10
2023-12-03T00:49:29.670Z,65.30
2023-12-03T00:51:31.555Z,65.30
2023-12-03T00:53:33.287Z,65.40
2023-12-03T00:55:35.319Z,65.40
2023-12-03T00:57:37.149Z,65.50
2023-12-03T00:59:38.823Z,65.50
2023-12-03T01:01:40.633Z,65.50
2023-12-03T01:03:42.447Z,65.40
2023-12-03T01:05:44.292Z,65.10
2023-12-03T01:07:46.114Z,64.70
2023-12-03T01:09:47.912Z,64.70
2023-12-03T01:11:49.675Z,64.70
2023-12-03T01:13:51.590Z,65.00
2023-12-03T01:15:53.321Z,65.00
2023-12-03T01:17:55.099Z,65.00
2023-12-03T01:19:56.824Z,65.00
2023-12-03T01:21:58.526Z,64.90
2023-12-03T01:24:00.202Z,65.00
2023-12-03T01:26:01.946Z,65.00
2023-12-03T01:28:03.782Z,65.00
2023-12-03T01:30:05.843Z,64.80
2023-12-03T01:32:07.661Z,64.50
2023-12-03T01:34:09.401Z,64.50
2023-12-03T01:36:11.232Z,64.90
2023-12-03T01:38:12.929Z,64.70
2023-12-03T01:40:14.684Z,64.80
2023-12-03T01:42:16.501Z,64.70
2023-12-03T01:44:18.186Z,64.80
2023-12-03T01:46:20.317Z,64.70
2023-12-03T01:48:22.226Z,64.70
2023-12-03T01:50:24.544Z,64.80
2023-12-03T01:52:28.742Z,65.00
2023-12-03T01:54:34.435Z,65.10
2023-12-03T01:56:36.160Z,65.40
2023-12-03T01:58:37.840Z,65.20
2023-12-03T02:00:39.928Z,64.90
2023-12-03T02:02:47.595Z,64.80
2023-12-03T02:04:49.473Z,66.10
2023-12-03T02:06:51.231Z,65.20
2023-12-03T02:08:53.422Z,65.10
2023-12-03T02:10:55.264Z,65.10
2023-12-03T02:12:59.211Z,65.20
2023-12-03T02:15:01.005Z,65.10
2023-12-03T02:17:03.554Z,65.20
2023-12-03T02:19:05.364Z,65.30
2023-12-03T02:21:08.505Z,65.30
2023-12-03T02:23:10.258Z,64.90
2023-12-03T02:25:11.981Z,64.80
2023-12-03T02:27:13.708Z,65.00
2023-12-03T02:29:15.537Z,65.10
2023-12-03T02:31:17.334Z,65.10
2023-12-03T02:33:19.167Z,65.30
2023-12-03T02:35:20.923Z,65.10
2023-12-03T02:37:22.631Z,64.80
2023-12-03T02:39:24.420Z,64.90
2023-12-03T02:41:26.299Z,64.50
2023-12-03T02:43:28.038Z,64.70
2023-12-03T02:45:29.749Z,64.90
2023-12-03T02:47:31.564Z,65.00
2023-12-03T02:49:34.407Z,65.00
2023-12-03T02:51:36.288Z,65.30
2023-12-03T02:53:38.250Z,65.70
2023-12-03T02:55:39.973Z,65.00
2023-12-03T02:57:41.750Z,65.00
2023-12-03T02:59:43.471Z,65.10
2023-12-03T03:01:45.219Z,65.30
2023-12-03T03:03:47.103Z,65.50
2023-12-03T03:05:48.988Z,65.50
2023-12-03T03:07:50.773Z,65.60
2023-12-03T03:09:52.507Z,65.50
2023-12-03T03:11:54.940Z,65.40
2023-12-03T03:13:56.680Z,65.10
2023-12-03T03:15:58.344Z,64.90
2023-12-03T03:18:00.090Z,65.10
2023-12-03T03:20:02.022Z,65.20
2023-12-03T03:22:03.846Z,65.20
2023-12-03T03:24:05.731Z,65.20
2023-12-03T03:26:07.507Z,65.40
2023-12-03T03:28:09.271Z,65.60
2023-12-03T03:30:11.298Z,65.70
2023-12-03T03:32:12.985Z,65.20
2023-12-03T03:34:14.796Z,65.20
2023-12-03T03:36:17.138Z,64.90
2023-12-03T03:38:18.906Z,64.40
2023-12-03T03:40:20.665Z,64.20
2023-12-03T03:42:22.413Z,63.70
2023-12-03T03:44:24.165Z,63.90
2023-12-03T03:46:25.869Z,64.40
2023-12-03T03:48:27.771Z,64.20
2023-12-03T03:50:29.500Z,64.30
2023-12-03T03:52:31.269Z,64.10
2023-12-03T03:54:33.042Z,63.70
2023-12-03T03:56:34.760Z,63.70
2023-12-03T03:58:39.544Z,64.10
2023-12-03T04:00:41.421Z,63.70
2023-12-03T04:02:43.228Z,64.20
2023-12-03T04:04:45.142Z,64.40
2023-12-03T04:06:47.106Z,64.80
2023-12-03T04:08:49.859Z,65.20
2023-12-03T04:10:51.578Z,65.40
2023-12-03T04:12:53.317Z,64.90
2023-12-03T04:14:55.068Z,65.00
2023-12-03T04:16:59.968Z,64.80
2023-12-03T04:19:02.266Z,64.30
2023-12-03T04:21:04.137Z,64.30
2023-12-03T04:23:05.846Z,63.80
2023-12-03T04:25:08.118Z,63.80
2023-12-03T04:27:09.820Z,64.20
2023-12-03T04:29:11.628Z,64.00
2023-12-03T04:31:17.518Z,63.70
2023-12-03T04:33:19.240Z,63.00
2023-12-03T04:35:21.021Z,63.10
2023-12-03T04:37:22.772Z,63.50
2023-12-03T04:39:24.534Z,64.10
2023-12-03T04:41:34.249Z,64.40
2023-12-03T04:43:36.006Z,64.80
2023-12-03T04:45:37.851Z,65.30
2023-12-03T04:47:39.632Z,65.20
2023-12-03T04:49:41.432Z,65.50
2023-12-03T04:51:43.176Z,65.40
2023-12-03T04:53:44.880Z,65.50
2023-12-03T04:55:46.572Z,65.70
2023-12-03T04:57:48.423Z,65.70
2023-12-03T04:59:50.172Z,65.80
2023-12-03T05:01:51.928Z,65.90
2023-12-03T05:03:53.699Z,65.60
2023-12-03T05:05:55.463Z,65.80
2023-12-03T05:07:57.344Z,65.50
2023-12-03T05:09:59.300Z,65.00
2023-12-03T05:12:01.002Z,65.20
2023-12-03T05:14:02.755Z,65.00
2023-12-03T05:16:07.646Z,64.90
2023-12-03T05:18:09.496Z,64.90
2023-12-03T05:20:11.524Z,64.80
2023-12-03T05:22:13.249Z,65.00
2023-12-03T05:24:15.045Z,65.10
2023-12-03T05:26:16.840Z,65.10
2023-12-03T05:28:18.770Z,65.20
2023-12-03T05:30:20.558Z,64.80
2023-12-03T05:32:22.288Z,64.80
2023-12-03T05:34:24.788Z,64.80
2023-12-03T05:36:26.774Z,64.90
2023-12-03T05:38:28.545Z,65.10
2023-12-03T05:40:30.249Z,65.40
2023-12-03T05:42:32.123Z,65.40
2023-12-03T05:44:33.977Z,65.00
2023-12-03T05:46:41.455Z,64.50
2023-12-03T05:48:43.909Z,64.30
2023-12-03T05:50:45.724Z,64.50
2023-12-03T05:52:47.437Z,64.70
2023-12-03T05:54:49.324Z,64.90
2023-12-03T05:56:51.064Z,64.70
2023-12-03T05:58:52.779Z,64.90
2023-12-03T06:00:54.543Z,65.10
2023-12-03T06:02:56.321Z,65.10
2023-12-03T06:04:58.140Z,65.20
2023-12-03T06:07:00.026Z,65.20
2023-12-03T06:09:02.185Z,65.10
2023-12-03T06:11:04.038Z,64.80
2023-12-03T06:13:05.812Z,64.90
2023-12-03T06:15:08.582Z,65.20
2023-12-03T06:17:10.333Z,65.10
2023-12-03T06:19:12.183Z,65.00
2023-12-03T06:21:14.003Z,64.90
2023-12-03T06:23:17.641Z,64.50
2023-12-03T06:25:20.675Z,64.70
2023-12-03T06:27:22.524Z,64.40
2023-12-03T06:29:24.254Z,64.40
2023-12-03T06:31:25.984Z,64.40
2023-12-03T06:33:28.019Z,64.40
2023-12-03T06:35:29.846Z,64.60
2023-12-03T06:37:31.556Z,64.70
2023-12-03T06:39:33.486Z,64.90
2023-12-03T06:41:35.384Z,65.10
2023-12-03T06:43:37.161Z,65.00
2023-12-03T06:45:39.031Z,65.20
2023-12-03T06:47:40.907Z,65.20
2023-12-03T06:49:42.971Z,65.40
2023-12-03T06:51:44.691Z,65.30
2023-12-03T06:53:46.437Z,65.10
2023-12-03T06:55:48.143Z,65.10
2023-12-03T06:57:49.931Z,65.10
2023-12-03T06:59:51.667Z,65.10
2023-12-03T07:01:53.398Z,65.10
2023-12-03T07:03:55.147Z,65.10
2023-12-03T07:05:57.236Z,65.00
2023-12-03T07:07:59.067Z,65.30
2023-12-03T07:10:00.868Z,65.30
2023-12-03T07:12:02.674Z,65.30
2023-12-03T07:14:04.359Z,65.50
2023-12-03T07:16:07.181Z,65.50
2023-12-03T07:18:08.925Z,65.40
2023-12-03T07:20:10.982Z,65.50
2023-12-03T07:22:12.809Z,65.50
2023-12-03T07:24:14.555Z,65.30
2023-12-03T07:26:16.298Z,65.10
2023-12-03T07:28:18.004Z,65.30
2023-12-03T07:30:19.763Z,65.50
2023-12-03T07:32:21.463Z,65.60
2023-12-03T07:34:23.281Z,65.80
2023-12-03T07:36:26.770Z,65.80
2023-12-03T07:38:29.483Z,65.90
2023-12-03T07:40:31.246Z,65.80
2023-12-03T07:42:33.004Z,65.70
2023-12-03T07:44:34.967Z,65.90
2023-12-03T07:46:36.655Z,66.00
2023-12-03T07:48:38.458Z,65.90
2023-12-03T07:50:41.562Z,65.80
2023-12-03T07:52:43.665Z,65.70
2023-12-03T07:54:48.362Z,65.70
2023-12-03T07:56:50.129Z,65.40
2023-12-03T07:58:51.812Z,65.60
2023-12-03T08:00:53.559Z,65.80
2023-12-03T08:02:55.767Z,66.00
2023-12-03T08:04:57.688Z,66.00
2023-12-03T08:06:59.552Z,66.00
2023-12-03T08:09:01.599Z,65.90
2023-12-03T08:11:03.862Z,66.10
2023-12-03T08:13:05.626Z,66.30
2023-12-03T08:15:07.494Z,66.60
2023-12-03T08:17:13.327Z,66.50
2023-12-03T08:19:15.089Z,66.40
2023-12-03T08:21:17.069Z,66.30
2023-12-03T08:23:18.878Z,66.30
2023-12-03T08:25:20.635Z,66.30
2023-12-03T08:27:22.376Z,66.40
2023-12-03T08:29:24.173Z,66.50
2023-12-03T08:31:25.930Z,66.50
2023-12-03T08:33:27.772Z,66.50
2023-12-03T08:35:29.810Z,66.50
2023-12-03T08:37:31.509Z,66.50
2023-12-03T08:39:33.327Z,66.50
2023-12-03T08:41:36.093Z,66.50
2023-12-03T08:43:37.777Z,66.70
2023-12-03T08:45:40.016Z,66.90
2023-12-03T08:47:42.552Z,66.70
2023-12-03T08:49:44.340Z,66.60
2023-12-03T08:51:46.181Z,66.60
2023-12-03T08:53:49.053Z,66.60
2023-12-03T08:55:51.606Z,66.60
2023-12-03T08:57:55.541Z,66.60
2023-12-03T08:59:59.025Z,66.70
2023-12-03T09:02:01.924Z,66.70
2023-12-03T09:04:04.985Z,66.80
2023-12-03T09:06:08.464Z,66.80
2023-12-03T09:08:10.970Z,66.80
2023-12-03T09:10:13.528Z,66.60
2023-12-03T09:12:17.718Z,66.50
2023-12-03T09:14:20.280Z,66.50
2023-12-03T09:16:22.913Z,66.50
2023-12-03T09:18:25.520Z,66.50
2023-12-03T09:20:27.244Z,66.50
2023-12-03T09:22:28.988Z,66.40
2023-12-03T09:24:30.732Z,66.30
2023-12-03T09:26:32.466Z,66.40
2023-12-03T09:28:35.415Z,66.20
2023-12-03T09:30:37.231Z,66.20
2023-12-03T09:32:39.346Z,66.00
2023-12-03T09:34:41.128Z,65.60
2023-12-03T09:36:42.860Z,65.80
2023-12-03T09:38:44.726Z,65.80
2023-12-03T09:40:48.878Z,65.80
2023-12-03T09:42:52.028Z,66.10
2023-12-03T09:45:05.390Z,66.10
2023-12-03T09:47:07.570Z,66.00
2023-12-03T09:49:10.325Z,66.10
2023-12-03T09:51:13.144Z,66.30
2023-12-03T09:53:16.175Z,66.40
2023-12-03T09:55:18.391Z,66.20
2023-12-03T09:57:20.660Z,66.20
2023-12-03T09:59:22.713Z,66.10
2023-12-03T10:01:25.047Z,65.90
2023-12-03T10:03:26.896Z,65.90
2023-12-03T10:05:28.732Z,66.20
2023-12-03T10:07:31.055Z,66.30
2023-12-03T10:09:33.530Z,66.30
2023-12-03T10:11:41.745Z,66.20
2023-12-03T10:13:43.811Z,65.70
2023-12-03T10:15:45.617Z,65.40
2023-12-03T10:17:47.616Z,65.50
2023-12-03T10:19:49.386Z,64.60
2023-12-03T10:21:51.923Z,64.80
2023-12-03T10:24:00.327Z,65.00
2023-12-03T10:26:09.918Z,65.10
2023-12-03T10:28:11.914Z,64.80
2023-12-03T10:30:13.928Z,64.80
2023-12-03T10:32:15.866Z,64.80
2023-12-03T10:34:18.365Z,64.80
2023-12-03T10:36:20.245Z,64.10
2023-12-03T10:38:22.035Z,64.10
2023-12-03T10:40:23.908Z,63.90
2023-12-03T10:42:25.751Z,64.20
2023-12-03T10:44:29.217Z,64.40
2023-12-03T10:46:31.108Z,63.90
2023-12-03T10:48:35.101Z,63.30
2023-12-03T10:50:37.547Z,63.00
2023-12-03T10:52:40.133Z,63.50
2023-12-03T10:54:42.002Z,63.20
2023-12-03T10:56:44.682Z,63.30
2023-12-03T10:58:47.633Z,63.10
2023-12-03T11:00:52.418Z,63.20
2023-12-03T11:03:09.550Z,63.90
2023-12-03T11:05:15.049Z,64.00
2023-12-03T11:07:19.635Z,63.60
2023-12-03T11:09:21.600Z,63.50
2023-12-03T11:11:23.463Z,62.70
2023-12-03T11:13:32.308Z,62.20
2023-12-03T11:15:38.839Z,63.10
2023-12-03T11:17:45.399Z,61.30
2023-12-03T11:19:55.205Z,61.20
2023-12-03T11:22:13.145Z,61.10
2023-12-03T11:24:14.983Z,61.60
2023-12-03T11:26:17.081Z,61.40
2023-12-03T11:28:19.073Z,61.20
2023-12-03T11:30:44.207Z,61.50
2023-12-03T11:32:49.110Z,61.60
2023-12-03T11:35:01.510Z,61.10
2023-12-03T11:37:08.032Z,61.10
2023-12-03T11:39:11.513Z,61.10
2023-12-03T11:41:13.335Z,62.60
2023-12-03T11:43:27.256Z,61.50
2023-12-03T11:45:30.958Z,61.80
2023-12-03T11:47:33.763Z,61.60
2023-12-03T11:49:36.534Z,61.80
2023-12-03T11:51:38.486Z,61.70
2023-12-03T11:53:40.376Z,61.80
2023-12-03T11:55:44.577Z,61.60
2023-12-03T11:57:46.496Z,61.70
2023-12-03T11:59:48.292Z,61.00
2023-12-03T12:01:50.153Z,60.80
2023-12-03T12:03:52.024Z,61.10
2023-12-03T12:05:53.933Z,60.30
2023-12-03T12:07:58.599Z,60.30
2023-12-03T12:10:00.524Z,59.70
2023-12-03T12:12:02.463Z,59.80
2023-12-03T12:14:04.346Z,60.10
2023-12-03T12:16:06.591Z,60.20
2023-12-03T12:18:08.485Z,60.30
2023-12-03T12:20:19.510Z,60.50
2023-12-03T12:22:24.052Z,60.10
2023-12-03T12:24:26.042Z,59.80
2023-12-03T12:26:30.237Z,59.90
2023-12-03T12:28:32.283Z,60.30
2023-12-03T12:30:36.220Z,60.30
2023-12-03T12:32:38.505Z,60.60
2023-12-03T12:34:40.877Z,60.60
2023-12-03T12:36:45.074Z,61.00
2023-12-03T12:38:46.974Z,60.80
2023-12-03T12:40:53.202Z,60.40
2023-12-03T12:43:24.777Z,60.50
2023-12-03T12:45:27.853Z,60.70
2023-12-03T12:47:36.332Z,60.20
2023-12-03T12:49:44.684Z,59.70
2023-12-03T12:51:46.563Z,60.00
2023-12-03T12:53:57.829Z,59.70
2023-12-03T12:56:00.882Z,59.10
2023-12-03T12:58:03.903Z,58.80
2023-12-03T13:00:07.178Z,59.20
2023-12-03T13:02:09.370Z,58.90
2023-12-03T13:04:11.329Z,58.60
2023-12-03T13:06:13.262Z,58.50
2023-12-03T13:08:15.083Z,58.80
2023-12-03T13:10:16.938Z,58.80
2023-12-03T13:12:18.811Z,58.90
2023-12-03T13:14:20.812Z,58.80
2023-12-03T13:16:22.791Z,59.30
2023-12-03T13:18:26.094Z,59.10
2023-12-03T13:20:29.286Z,59.10
2023-12-03T13:22:31.371Z,59.10
2023-12-03T13:24:33.807Z,58.60
2023-12-03T13:26:36.131Z,59.00
2023-12-03T13:28:37.972Z,58.90
2023-12-03T13:30:39.835Z,58.80
2023-12-03T13:32:42.652Z,58.70
2023-12-03T13:34:44.611Z,58.60
2023-12-03T13:36:46.514Z,58.90
2023-12-03T13:38:48.337Z,59.00
2023-12-03T13:40:50.338Z,58.60
2023-12-03T13:42:53.373Z,58.50
2023-12-03T13:44:55.297Z,58.70
2023-12-03T13:46:58.338Z,59.00
2023-12-03T13:49:01.209Z,58.70
2023-12-03T13:51:03.610Z,58.90
2023-12-03T13:53:05.459Z,58.30
2023-12-03T13:55:07.449Z,58.00
2023-12-03T13:57:09.606Z,58.70
2023-12-03T13:59:11.985Z,58.60
2023-12-03T14:01:14.673Z,58.60
2023-12-03T14:03:16.439Z,58.70
2023-12-03T14:05:23.668Z,58.30
2023-12-03T14:07:27.057Z,57.90
2023-12-03T14:09:28.835Z,58.40
2023-12-03T14:11:31.928Z,58.20
2023-12-03T14:13:33.664Z,58.30
2023-12-03T14:15:35.473Z,58.20
2023-12-03T14:17:37.334Z,57.80
2023-12-03T14:19:39.297Z,58.00
2023-12-03T14:21:42.760Z,58.20
2023-12-03T14:23:44.756Z,57.90
2023-12-03T14:25:46.569Z,57.60
2023-12-03T14:27:48.370Z,57.80
2023-12-03T14:29:53.395Z,57.80
2023-12-03T14:31:55.215Z,57.50
2023-12-03T14:33:57.145Z,57.40
2023-12-03T14:35:58.976Z,57.60
2023-12-03T14:38:00.718Z,57.70
2023-12-03T14:40:02.890Z,58.40
2023-12-03T14:42:04.842Z,58.70
2023-12-03T14:44:07.078Z,59.00
2023-12-03T14:46:09.117Z,59.30
2023-12-03T14:48:10.882Z,59.40
2023-12-03T14:50:13.510Z,59.50
2023-12-03T14:52:15.300Z,59.50
2023-12-03T14:54:21.032Z,59.60
2023-12-03T14:56:30.141Z,59.70
2023-12-03T14:58:31.877Z,59.10
2023-12-03T15:00:33.969Z,58.40
2023-12-03T15:02:35.791Z,58.60
2023-12-03T15:04:39.491Z,58.70
2023-12-03T15:06:43.503Z,59.20
2023-12-03T15:08:48.084Z,59.60
2023-12-03T15:10:49.914Z,59.90
2023-12-03T15:12:51.933Z,60.20
2023-12-03T15:14:53.836Z,60.50
2023-12-03T15:16:55.785Z,60.60
2023-12-03T15:18:57.696Z,60.60
2023-12-03T15:20:59.616Z,60.40
2023-12-03T15:23:01.537Z,60.80
2023-12-03T15:25:03.368Z,60.90
2023-12-03T15:27:05.371Z,60.70
2023-12-03T15:29:07.157Z,60.90
2023-12-03T15:31:09.387Z,60.80
2023-12-03T15:33:11.273Z,60.70
2023-12-03T15:35:13.093Z,60.80
2023-12-03T15:37:14.807Z,60.90
2023-12-03T15:39:16.552Z,60.50
2023-12-03T15:41:19.506Z,60.50
2023-12-03T15:43:29.985Z,60.30
2023-12-03T15:45:41.938Z,60.80
2023-12-03T15:47:47.761Z,60.90
2023-12-03T15:49:49.671Z,60.80
2023-12-03T15:51:51.550Z,60.80
2023-12-03T15:53:53.335Z,60.70
2023-12-03T15:55:58.506Z,60.90
2023-12-03T15:58:00.377Z,60.90
2023-12-03T16:00:02.187Z,60.80
2023-12-03T16:02:13.975Z,61.00
2023-12-03T16:04:16.022Z,61.00
2023-12-03T16:06:17.847Z,61.30
2023-12-03T16:08:19.704Z,61.40
2023-12-03T16:10:21.650Z,61.30
2023-12-03T16:12:23.818Z,61.40
2023-12-03T16:14:26.295Z,61.50
2023-12-03T16:16:29.150Z,61.50
2023-12-03T16:18:31.376Z,61.50
2023-12-03T16:20:33.587Z,61.80
2023-12-03T16:22:35.392Z,61.60
2023-12-03T16:24:37.198Z,61.70
2023-12-03T16:26:38.977Z,61.80
2023-12-03T16:28:40.849Z,62.00
2023-12-03T16:30:42.722Z,62.20
2023-12-03T16:32:45.058Z,62.20
2023-12-03T16:34:49.307Z,62.20
2023-12-03T16:36:51.253Z,62.20
2023-12-03T16:38:52.990Z,61.90
2023-12-03T16:40:56.354Z,62.00
2023-12-03T16:42:58.238Z,61.60
2023-12-03T16:45:00.097Z,61.80
2023-12-03T16:47:02.181Z,62.20
2023-12-03T16:49:04.565Z,62.40
2023-12-03T16:51:06.695Z,62.40
2023-12-03T16:53:08.637Z,62.40
2023-12-03T16:55:10.962Z,62.60
2023-12-03T16:57:13.561Z,62.90
2023-12-03T16:59:16.924Z,62.80
2023-12-03T17:01:19.374Z,62.90
2023-12-03T17:03:24.281Z,62.80
2023-12-03T17:05:26.584Z,62.50
2023-12-03T17:07:28.992Z,62.50
2023-12-03T17:09:30.851Z,62.30
2023-12-03T17:11:32.761Z,62.40
2023-12-03T17:13:34.720Z,62.60
2023-12-03T17:15:37.522Z,62.60
2023-12-03T17:17:39.426Z,62.60
2023-12-03T17:19:41.416Z,62.60
2023-12-03T17:21:43.493Z,62.40
2023-12-03T17:23:45.339Z,62.00
2023-12-03T17:25:48.144Z,62.10
2023-12-03T17:27:51.266Z,62.30
2023-12-03T17:29:54.747Z,62.20
2023-12-03T17:31:56.824Z,62.50
2023-12-03T17:33:58.844Z,62.40
2023-12-03T17:36:00.768Z,62.40
2023-12-03T17:38:02.842Z,62.70
2023-12-03T17:40:06.490Z,62.70
2023-12-03T17:42:09.443Z,62.70
2023-12-03T17:44:11.263Z,62.90
2023-12-03T17:46:13.414Z,63.10
2023-12-03T17:48:15.449Z,62.90
2023-12-03T17:50:17.448Z,63.00
2023-12-03T17:52:19.241Z,63.40
2023-12-03T17:54:21.085Z,63.10
2023-12-03T17:56:23.017Z,63.20
2023-12-03T17:58:24.847Z,63.10
2023-12-03T18:00:28.322Z,63.20
2023-12-03T18:02:30.370Z,63.60
2023-12-03T18:04:32.258Z,63.70
2023-12-03T18:06:35.095Z,63.60
2023-12-03T18:08:37.270Z,63.70
2023-12-03T18:10:39.123Z,63.60
2023-12-03T18:12:41.007Z,63.30
2023-12-03T18:14:42.868Z,63.30
2023-12-03T18:16:44.930Z,63.40
2023-12-03T18:18:46.943Z,63.10
2023-12-03T18:20:48.828Z,63.10
2023-12-03T18:22:50.613Z,63.40
2023-12-03T18:24:52.588Z,63.40
2023-12-03T18:26:54.450Z,63.70
2023-12-03T18:28:56.494Z,63.90
2023-12-03T18:31:01.369Z,64.10
2023-12-03T18:33:05.187Z,64.00
2023-12-03T18:35:07.287Z,64.00
2023-12-03T18:37:11.281Z,64.20
2023-12-03T18:39:13.192Z,64.10
2023-12-03T18:41:19.047Z,64.20
2023-12-03T18:43:21.381Z,64.40
2023-12-03T18:45:24.512Z,64.20
2023-12-03T18:47:27.089Z,64.20
2023-12-03T18:49:29.421Z,64.30
2023-12-03T18:51:33.306Z,64.20
2023-12-03T18:53:36.023Z,64.10
2023-12-03T18:55:39.562Z,64.00
2023-12-03T18:57:43.832Z,63.90
2023-12-03T18:59:46.860Z,63.90
2023-12-03T19:01:49.411Z,63.90
2023-12-03T19:03:53.066Z,63.90
2023-12-03T19:05:56.868Z,64.00
2023-12-03T19:08:01.375Z,63.80
2023-12-03T19:10:03.828Z,63.90
2023-12-03T19:12:05.964Z,63.90
2023-12-03T19:14:08.177Z,63.90
2023-12-03T19:16:13.069Z,63.80
2023-12-03T19:18:17.218Z,63.70
2023-12-03T19:20:19.309Z,63.70
2023-12-03T19:22:22.006Z,63.80
2023-12-03T19:24:23.935Z,63.80
2023-12-03T19:26:28.299Z,63.80
2023-12-03T19:28:30.181Z,63.90
2023-12-03T19:30:32.196Z,64.00
2023-12-03T19:32:34.128Z,64.20
2023-12-03T19:34:36.156Z,64.30
2023-12-03T19:36:38.169Z,64.40
2023-12-03T19:38:40.089Z,64.50
2023-12-03T19:40:41.975Z,64.70
2023-12-03T19:42:43.986Z,64.90
2023-12-03T19:44:52.417Z,64.80
2023-12-03T19:46:58.521Z,64.80
2023-12-03T19:49:00.614Z,65.00
2023-12-03T19:51:02.513Z,65.00
2023-12-03T19:53:04.432Z,65.20
2023-12-03T19:55:06.467Z,65.30
2023-12-03T19:57:09.345Z,65.20
2023-12-03T19:59:12.139Z,65.20
2023-12-03T20:01:15.175Z,65.20
2023-12-03T20:03:16.938Z,65.20
2023-12-03T20:05:19.091Z,65.10
2023-12-03T20:07:23.721Z,65.10
2023-12-03T20:09:25.694Z,65.30
2023-12-03T20:11:27.532Z,65.30
2023-12-03T20:13:35.513Z,65.30
2023-12-03T20:15:41.589Z,65.10
2023-12-03T20:17:44.119Z,65.00
2023-12-03T20:19:46.127Z,65.20
2023-12-03T20:21:48.737Z,65.20
2023-12-03T20:23:50.558Z,65.10
2023-12-03T20:25:55.854Z,65.00
2023-12-03T20:27:57.788Z,65.10
2023-12-03T20:29:59.708Z,65.10
2023-12-03T20:32:01.659Z,65.30
2023-12-03T20:34:04.928Z,65.30
2023-12-03T20:36:09.397Z,65.20
2023-12-03T20:38:11.300Z,65.10
2023-12-03T20:40:13.529Z,65.30
2023-12-03T20:42:15.538Z,65.20
2023-12-03T20:44:17.392Z,65.20
2023-12-03T20:46:19.624Z,65.20
2023-12-03T20:48:21.644Z,65.30
2023-12-03T20:50:25.116Z,65.30
2023-12-03T20:52:27.013Z,65.30
2023-12-03T20:54:29.137Z,65.50
2023-12-03T20:56:31.128Z,65.60
2023-12-03T20:58:33.377Z,65.50
2023-12-03T21:00:35.397Z,65.50
2023-12-03T21:02:37.307Z,65.50
2023-12-03T21:04:39.370Z,65.40
2023-12-03T21:06:41.366Z,65.40
2023-12-03T21:08:43.211Z,65.40
2023-12-03T21:10:45.274Z,65.40
2023-12-03T21:12:47.595Z,65.40
2023-12-03T21:14:49.564Z,65.60
2023-12-03T21:16:51.471Z,65.60
2023-12-03T21:18:53.407Z,65.50
2023-12-03T21:20:55.637Z,65.40
2023-12-03T21:22:57.546Z,65.40
2023-12-03T21:24:59.438Z,65.50
2023-12-03T21:27:01.660Z,65.40
2023-12-03T21:29:03.651Z,65.40
2023-12-03T21:31:05.676Z,65.30
2023-12-03T21:33:08.396Z,65.30
2023-12-03T21:35:10.511Z,65.20
2023-12-03T21:37:13.761Z,65.30
2023-12-03T21:39:16.357Z,65.40
2023-12-03T21:41:18.119Z,65.50
2023-12-03T21:43:21.741Z,65.30
2023-12-03T21:45:24.643Z,65.30
2023-12-03T21:47:26.962Z,65.30
2023-12-03T21:49:29.295Z,65.40
2023-12-03T21:51:33.629Z,65.40
2023-12-03T21:53:35.526Z,65.30
2023-12-03T21:55:37.813Z,65.40
2023-12-03T21:57:39.667Z,65.40
2023-12-03T21:59:41.457Z,65.30
2023-12-03T22:01:43.341Z,65.10
2023-12-03T22:03:45.465Z,65.30
2023-12-03T22:05:47.324Z,65.60
2023-12-03T22:07:49.990Z,65.50
2023-12-03T22:09:51.766Z,65.50
2023-12-03T22:11:53.551Z,65.40
2023-12-03T22:13:55.330Z,65.40
2023-12-03T22:15:57.208Z,65.50
2023-12-03T22:17:59.000Z,65.30
2023-12-03T22:20:00.938Z,65.20
2023-12-03T22:22:02.916Z,65.40
2023-12-03T22:24:04.844Z,65.40
2023-12-03T22:26:06.670Z,65.50
2023-12-03T22:28:08.590Z,65.70
2023-12-03T22:30:15.803Z,65.70
2023-12-03T22:32:18.884Z,65.70
2023-12-03T22:34:20.950Z,65.60
2023-12-03T22:36:22.865Z,65.50
2023-12-03T22:38:24.680Z,65.50
2023-12-03T22:40:27.181Z,65.40
2023-12-03T22:42:29.238Z,65.50
2023-12-03T22:44:32.292Z,65.50
2023-12-03T22:46:34.086Z,65.60
2023-12-03T22:48:37.713Z,65.50
2023-12-03T22:50:39.513Z,65.50
2023-12-03T22:52:41.316Z,65.40
2023-12-03T22:54:43.201Z,65.40
2023-12-03T22:56:45.047Z,65.20
2023-12-03T22:58:46.783Z,65.10
2023-12-03T23:00:48.604Z,65.20
2023-12-03T23:02:50.492Z,65.10
2023-12-03T23:04:52.393Z,65.00
2023-12-03T23:06:54.222Z,64.80
2023-12-03T23:08:56.398Z,65.00
2023-12-03T23:10:58.134Z,65.10
2023-12-03T23:13:00.024Z,65.40
2023-12-03T23:15:01.735Z,65.30
2023-12-03T23:17:03.526Z,65.30
2023-12-03T23:19:05.403Z,65.10
2023-12-03T23:21:07.387Z,65.10
2023-12-03T23:23:09.160Z,65.10
2023-12-03T23:25:10.975Z,65.20
2023-12-03T23:27:17.367Z,65.20
2023-12-03T23:29:21.600Z,65.30
2023-12-03T23:31:23.375Z,65.40
2023-12-03T23:33:25.281Z,65.50
2023-12-03T23:35:27.096Z,65.50
2023-12-03T23:37:29.194Z,65.50
2023-12-03T23:39:31.137Z,65.80
2023-12-03T23:41:32.958Z,65.90
2023-12-03T23:43:34.746Z,65.90
2023-12-03T23:45:36.477Z,66.00
2023-12-03T23:47:38.309Z,65.80
2023-12-03T23:49:40.492Z,65.70
2023-12-03T23:51:42.503Z,65.70
2023-12-03T23:53:44.635Z,65.90
2023-12-03T23:55:46.400Z,65.80
2023-12-03T23:57:48.217Z,65.90
2023-12-03T23:59:49.968Z,65.80
